sensor_id;sensor_type;location;lat;lon;timestamp;P1;durP1;ratioP1;P2;durP2;ratioP2
71502;SDS011;59322;51.382;7.372;2023-08-30T00:00:42;95.15;;;88.78;;
71502;SDS011;59322;51.382;7.372;2023-08-30T00:03:08;93.18;;;86.82;;
71502;SDS011;59322;51.382;7.372;2023-08-30T00:05:38;94.80;;;87.88;;
71502;SDS011;59322;51.382;7.372;2023-08-30T00:08:04;98.75;;;92.32;;
71502;SDS011;59322;51.382;7.372;2023-08-30T00:10:30;104.20;;;97.22;;
71502;SDS011;59322;51.382;7.372;2023-08-30T00:12:55;106.90;;;99.55;;
71502;SDS011;59322;51.382;7.372;2023-08-30T00:15:22;105.40;;;98.18;;
71502;SDS011;59322;51.382;7.372;2023-08-30T00:17:49;101.43;;;94.60;;
71502;SDS011;59322;51.382;7.372;2023-08-30T00:20:15;103.97;;;96.43;;
71502;SDS011;59322;51.382;7.372;2023-08-30T00:22:41;102.18;;;95.15;;
71502;SDS011;59322;51.382;7.372;2023-08-30T00:25:07;104.68;;;97.50;;
71502;SDS011;59322;51.382;7.372;2023-08-30T00:27:33;93.38;;;87.00;;
71502;SDS011;59322;51.382;7.372;2023-08-30T00:29:58;85.93;;;79.75;;
71502;SDS011;59322;51.382;7.372;2023-08-30T00:32:24;86.53;;;80.05;;
71502;SDS011;59322;51.382;7.372;2023-08-30T00:34:50;81.30;;;75.15;;
71502;SDS011;59322;51.382;7.372;2023-08-30T00:37:16;78.72;;;72.57;;
71502;SDS011;59322;51.382;7.372;2023-08-30T00:39:42;71.35;;;65.72;;
71502;SDS011;59322;51.382;7.372;2023-08-30T00:42:08;65.45;;;60.42;;
71502;SDS011;59322;51.382;7.372;2023-08-30T00:44:34;62.38;;;57.25;;
71502;SDS011;59322;51.382;7.372;2023-08-30T00:47:00;60.13;;;55.10;;
71502;SDS011;59322;51.382;7.372;2023-08-30T00:49:27;60.20;;;54.78;;
71502;SDS011;59322;51.382;7.372;2023-08-30T00:51:53;63.60;;;57.72;;
71502;SDS011;59322;51.382;7.372;2023-08-30T00:54:19;59.78;;;54.40;;
71502;SDS011;59322;51.382;7.372;2023-08-30T00:56:45;56.10;;;51.17;;
71502;SDS011;59322;51.382;7.372;2023-08-30T00:59:11;55.55;;;50.13;;
71502;SDS011;59322;51.382;7.372;2023-08-30T01:01:37;53.63;;;48.42;;
71502;SDS011;59322;51.382;7.372;2023-08-30T01:04:04;53.45;;;48.65;;
71502;SDS011;59322;51.382;7.372;2023-08-30T01:06:30;53.63;;;48.58;;
71502;SDS011;59322;51.382;7.372;2023-08-30T01:08:55;53.13;;;47.97;;
71502;SDS011;59322;51.382;7.372;2023-08-30T01:11:22;53.72;;;48.63;;
71502;SDS011;59322;51.382;7.372;2023-08-30T01:16:36;54.50;;;49.72;;
71502;SDS011;59322;51.382;7.372;2023-08-30T01:21:50;54.47;;;49.65;;
71502;SDS011;59322;51.382;7.372;2023-08-30T01:24:23;57.45;;;52.35;;
71502;SDS011;59322;51.382;7.372;2023-08-30T01:29:26;55.97;;;51.15;;
71502;SDS011;59322;51.382;7.372;2023-08-30T01:31:53;57.60;;;52.78;;
71502;SDS011;59322;51.382;7.372;2023-08-30T01:34:19;57.33;;;52.20;;
71502;SDS011;59322;51.382;7.372;2023-08-30T01:36:45;56.33;;;51.60;;
71502;SDS011;59322;51.382;7.372;2023-08-30T01:39:11;58.53;;;53.53;;
71502;SDS011;59322;51.382;7.372;2023-08-30T01:41:38;56.47;;;51.83;;
71502;SDS011;59322;51.382;7.372;2023-08-30T01:44:05;57.53;;;52.83;;
71502;SDS011;59322;51.382;7.372;2023-08-30T01:46:32;60.03;;;55.03;;
71502;SDS011;59322;51.382;7.372;2023-08-30T01:48:59;63.42;;;57.67;;
71502;SDS011;59322;51.382;7.372;2023-08-30T01:51:26;60.92;;;55.67;;
71502;SDS011;59322;51.382;7.372;2023-08-30T01:53:53;65.63;;;60.20;;
71502;SDS011;59322;51.382;7.372;2023-08-30T01:56:19;66.82;;;61.08;;
71502;SDS011;59322;51.382;7.372;2023-08-30T01:58:45;69.13;;;63.22;;
71502;SDS011;59322;51.382;7.372;2023-08-30T02:01:11;68.65;;;62.95;;
71502;SDS011;59322;51.382;7.372;2023-08-30T02:03:37;66.50;;;60.67;;
71502;SDS011;59322;51.382;7.372;2023-08-30T02:06:07;63.47;;;58.08;;
71502;SDS011;59322;51.382;7.372;2023-08-30T02:08:38;66.53;;;60.70;;
71502;SDS011;59322;51.382;7.372;2023-08-30T02:11:07;64.53;;;58.97;;
71502;SDS011;59322;51.382;7.372;2023-08-30T02:13:36;69.80;;;63.60;;
71502;SDS011;59322;51.382;7.372;2023-08-30T02:16:04;69.60;;;62.70;;
71502;SDS011;59322;51.382;7.372;2023-08-30T02:18:30;67.32;;;61.05;;
71502;SDS011;59322;51.382;7.372;2023-08-30T02:20:56;68.45;;;61.88;;
71502;SDS011;59322;51.382;7.372;2023-08-30T02:23:23;69.97;;;63.15;;
71502;SDS011;59322;51.382;7.372;2023-08-30T02:25:49;69.70;;;62.75;;
71502;SDS011;59322;51.382;7.372;2023-08-30T02:28:15;69.70;;;63.00;;
71502;SDS011;59322;51.382;7.372;2023-08-30T02:30:41;69.38;;;62.33;;
71502;SDS011;59322;51.382;7.372;2023-08-30T02:33:07;70.82;;;63.72;;
71502;SDS011;59322;51.382;7.372;2023-08-30T02:35:33;70.13;;;63.13;;
71502;SDS011;59322;51.382;7.372;2023-08-30T02:37:58;66.13;;;59.83;;
71502;SDS011;59322;51.382;7.372;2023-08-30T02:40:24;64.90;;;58.63;;
71502;SDS011;59322;51.382;7.372;2023-08-30T02:42:50;70.85;;;64.70;;
71502;SDS011;59322;51.382;7.372;2023-08-30T02:45:16;74.30;;;67.90;;
71502;SDS011;59322;51.382;7.372;2023-08-30T02:47:44;73.38;;;66.60;;
71502;SDS011;59322;51.382;7.372;2023-08-30T02:50:10;76.38;;;69.97;;
71502;SDS011;59322;51.382;7.372;2023-08-30T02:52:36;75.72;;;69.25;;
71502;SDS011;59322;51.382;7.372;2023-08-30T02:55:02;74.93;;;67.85;;
71502;SDS011;59322;51.382;7.372;2023-08-30T02:57:27;77.35;;;70.38;;
71502;SDS011;59322;51.382;7.372;2023-08-30T02:59:53;77.97;;;71.32;;
71502;SDS011;59322;51.382;7.372;2023-08-30T03:02:19;76.95;;;69.93;;
71502;SDS011;59322;51.382;7.372;2023-08-30T03:04:45;78.28;;;71.30;;
71502;SDS011;59322;51.382;7.372;2023-08-30T03:07:11;73.63;;;66.93;;
71502;SDS011;59322;51.382;7.372;2023-08-30T03:09:37;79.60;;;72.55;;
71502;SDS011;59322;51.382;7.372;2023-08-30T03:12:03;76.00;;;69.32;;
71502;SDS011;59322;51.382;7.372;2023-08-30T03:14:29;74.90;;;68.13;;
71502;SDS011;59322;51.382;7.372;2023-08-30T03:16:55;73.60;;;67.05;;
71502;SDS011;59322;51.382;7.372;2023-08-30T03:19:21;71.53;;;65.07;;
71502;SDS011;59322;51.382;7.372;2023-08-30T03:21:46;69.85;;;63.25;;
71502;SDS011;59322;51.382;7.372;2023-08-30T03:24:12;76.13;;;69.57;;
71502;SDS011;59322;51.382;7.372;2023-08-30T03:26:38;76.68;;;69.57;;
71502;SDS011;59322;51.382;7.372;2023-08-30T03:29:04;71.40;;;64.90;;
71502;SDS011;59322;51.382;7.372;2023-08-30T03:31:30;72.13;;;65.47;;
71502;SDS011;59322;51.382;7.372;2023-08-30T03:33:56;68.03;;;61.83;;
71502;SDS011;59322;51.382;7.372;2023-08-30T03:36:22;69.00;;;61.83;;
71502;SDS011;59322;51.382;7.372;2023-08-30T03:38:48;69.53;;;61.92;;
71502;SDS011;59322;51.382;7.372;2023-08-30T03:41:14;71.57;;;62.70;;
71502;SDS011;59322;51.382;7.372;2023-08-30T03:43:40;69.93;;;62.30;;
71502;SDS011;59322;51.382;7.372;2023-08-30T03:46:06;72.40;;;64.63;;
71502;SDS011;59322;51.382;7.372;2023-08-30T03:48:32;68.57;;;61.47;;
71502;SDS011;59322;51.382;7.372;2023-08-30T03:50:58;73.93;;;65.88;;
71502;SDS011;59322;51.382;7.372;2023-08-30T03:53:24;75.32;;;65.97;;
71502;SDS011;59322;51.382;7.372;2023-08-30T03:55:50;76.50;;;67.72;;
71502;SDS011;59322;51.382;7.372;2023-08-30T03:58:19;78.40;;;67.88;;
71502;SDS011;59322;51.382;7.372;2023-08-30T04:00:45;88.88;;;70.32;;
71502;SDS011;59322;51.382;7.372;2023-08-30T04:03:12;79.85;;;69.55;;
71502;SDS011;59322;51.382;7.372;2023-08-30T04:05:38;88.28;;;69.05;;
71502;SDS011;59322;51.382;7.372;2023-08-30T04:08:05;87.57;;;72.32;;
71502;SDS011;59322;51.382;7.372;2023-08-30T04:10:34;83.32;;;71.15;;
71502;SDS011;59322;51.382;7.372;2023-08-30T04:13:00;81.55;;;72.35;;
71502;SDS011;59322;51.382;7.372;2023-08-30T04:15:26;87.05;;;77.72;;
71502;SDS011;59322;51.382;7.372;2023-08-30T04:17:54;92.05;;;82.40;;
71502;SDS011;59322;51.382;7.372;2023-08-30T04:20:20;92.32;;;82.15;;
71502;SDS011;59322;51.382;7.372;2023-08-30T04:22:46;90.30;;;81.15;;
71502;SDS011;59322;51.382;7.372;2023-08-30T04:25:12;93.68;;;83.90;;
71502;SDS011;59322;51.382;7.372;2023-08-30T04:27:38;95.88;;;85.85;;
71502;SDS011;59322;51.382;7.372;2023-08-30T04:30:04;94.88;;;85.30;;
71502;SDS011;59322;51.382;7.372;2023-08-30T04:32:30;76.07;;;68.53;;
71502;SDS011;59322;51.382;7.372;2023-08-30T04:34:56;72.18;;;64.57;;
71502;SDS011;59322;51.382;7.372;2023-08-30T04:37:22;73.60;;;64.50;;
71502;SDS011;59322;51.382;7.372;2023-08-30T04:39:47;77.20;;;68.88;;
71502;SDS011;59322;51.382;7.372;2023-08-30T04:42:13;91.95;;;83.68;;
71502;SDS011;59322;51.382;7.372;2023-08-30T04:44:39;76.30;;;64.82;;
71502;SDS011;59322;51.382;7.372;2023-08-30T04:47:05;73.15;;;65.28;;
71502;SDS011;59322;51.382;7.372;2023-08-30T04:49:31;80.07;;;71.95;;
71502;SDS011;59322;51.382;7.372;2023-08-30T04:51:57;90.78;;;81.60;;
71502;SDS011;59322;51.382;7.372;2023-08-30T04:54:23;92.22;;;83.50;;
71502;SDS011;59322;51.382;7.372;2023-08-30T04:56:49;97.90;;;88.65;;
71502;SDS011;59322;51.382;7.372;2023-08-30T04:59:15;95.32;;;86.35;;
71502;SDS011;59322;51.382;7.372;2023-08-30T05:01:41;93.85;;;84.57;;
71502;SDS011;59322;51.382;7.372;2023-08-30T05:04:06;92.00;;;82.68;;
71502;SDS011;59322;51.382;7.372;2023-08-30T05:06:32;82.85;;;74.05;;
71502;SDS011;59322;51.382;7.372;2023-08-30T05:08:58;86.00;;;72.90;;
71502;SDS011;59322;51.382;7.372;2023-08-30T05:11:24;86.43;;;74.28;;
71502;SDS011;59322;51.382;7.372;2023-08-30T05:13:50;90.47;;;74.13;;
71502;SDS011;59322;51.382;7.372;2023-08-30T05:16:16;86.18;;;73.72;;
71502;SDS011;59322;51.382;7.372;2023-08-30T05:18:42;97.72;;;78.80;;
71502;SDS011;59322;51.382;7.372;2023-08-30T05:21:08;90.43;;;76.78;;
71502;SDS011;59322;51.382;7.372;2023-08-30T05:23:33;93.32;;;78.90;;
71502;SDS011;59322;51.382;7.372;2023-08-30T05:25:59;86.07;;;76.00;;
71502;SDS011;59322;51.382;7.372;2023-08-30T05:28:25;88.68;;;75.55;;
71502;SDS011;59322;51.382;7.372;2023-08-30T05:30:51;100.47;;;83.28;;
71502;SDS011;59322;51.382;7.372;2023-08-30T05:33:17;99.07;;;82.93;;
71502;SDS011;59322;51.382;7.372;2023-08-30T05:35:43;102.07;;;89.60;;
71502;SDS011;59322;51.382;7.372;2023-08-30T05:38:09;102.30;;;91.38;;
71502;SDS011;59322;51.382;7.372;2023-08-30T05:40:35;105.63;;;94.18;;
71502;SDS011;59322;51.382;7.372;2023-08-30T05:43:01;108.43;;;96.45;;
71502;SDS011;59322;51.382;7.372;2023-08-30T05:45:27;108.68;;;97.03;;
71502;SDS011;59322;51.382;7.372;2023-08-30T05:47:52;108.28;;;96.50;;
71502;SDS011;59322;51.382;7.372;2023-08-30T05:50:18;105.25;;;93.93;;
71502;SDS011;59322;51.382;7.372;2023-08-30T05:52:44;111.95;;;99.65;;
71502;SDS011;59322;51.382;7.372;2023-08-30T05:55:10;105.43;;;93.82;;
71502;SDS011;59322;51.382;7.372;2023-08-30T05:57:36;106.35;;;95.32;;
71502;SDS011;59322;51.382;7.372;2023-08-30T06:00:02;104.57;;;93.43;;
71502;SDS011;59322;51.382;7.372;2023-08-30T06:02:28;100.93;;;89.97;;
71502;SDS011;59322;51.382;7.372;2023-08-30T06:04:54;104.25;;;90.00;;
71502;SDS011;59322;51.382;7.372;2023-08-30T06:07:20;97.05;;;83.28;;
71502;SDS011;59322;51.382;7.372;2023-08-30T06:09:46;93.85;;;81.20;;
71502;SDS011;59322;51.382;7.372;2023-08-30T06:12:12;106.65;;;82.25;;
71502;SDS011;59322;51.382;7.372;2023-08-30T06:14:38;100.47;;;83.75;;
71502;SDS011;59322;51.382;7.372;2023-08-30T06:17:04;102.60;;;84.93;;
71502;SDS011;59322;51.382;7.372;2023-08-30T06:19:29;103.05;;;82.43;;
71502;SDS011;59322;51.382;7.372;2023-08-30T06:21:55;98.55;;;85.53;;
71502;SDS011;59322;51.382;7.372;2023-08-30T06:24:21;100.88;;;85.25;;
71502;SDS011;59322;51.382;7.372;2023-08-30T06:26:47;103.88;;;83.57;;
71502;SDS011;59322;51.382;7.372;2023-08-30T06:29:13;96.80;;;80.78;;
71502;SDS011;59322;51.382;7.372;2023-08-30T06:31:39;100.72;;;84.57;;
71502;SDS011;59322;51.382;7.372;2023-08-30T06:34:05;94.68;;;81.70;;
71502;SDS011;59322;51.382;7.372;2023-08-30T06:36:31;98.22;;;82.55;;
71502;SDS011;59322;51.382;7.372;2023-08-30T06:38:57;96.25;;;80.22;;
71502;SDS011;59322;51.382;7.372;2023-08-30T06:41:23;96.55;;;81.05;;
71502;SDS011;59322;51.382;7.372;2023-08-30T06:43:48;94.40;;;83.63;;
71502;SDS011;59322;51.382;7.372;2023-08-30T06:46:14;95.38;;;83.10;;
71502;SDS011;59322;51.382;7.372;2023-08-30T06:48:40;100.07;;;85.13;;
71502;SDS011;59322;51.382;7.372;2023-08-30T06:51:06;102.72;;;85.95;;
71502;SDS011;59322;51.382;7.372;2023-08-30T06:53:32;94.50;;;81.95;;
71502;SDS011;59322;51.382;7.372;2023-08-30T06:55:58;106.53;;;85.88;;
71502;SDS011;59322;51.382;7.372;2023-08-30T06:58:24;101.43;;;85.35;;
71502;SDS011;59322;51.382;7.372;2023-08-30T07:00:50;131.85;;;97.13;;
71502;SDS011;59322;51.382;7.372;2023-08-30T07:03:16;129.57;;;98.70;;
71502;SDS011;59322;51.382;7.372;2023-08-30T07:05:42;137.98;;;104.50;;
71502;SDS011;59322;51.382;7.372;2023-08-30T07:08:08;137.25;;;100.97;;
71502;SDS011;59322;51.382;7.372;2023-08-30T07:10:34;140.95;;;99.35;;
71502;SDS011;59322;51.382;7.372;2023-08-30T07:13:00;123.30;;;88.25;;
71502;SDS011;59322;51.382;7.372;2023-08-30T07:15:26;113.97;;;88.93;;
71502;SDS011;59322;51.382;7.372;2023-08-30T07:17:52;112.40;;;92.25;;
71502;SDS011;59322;51.382;7.372;2023-08-30T07:20:18;115.55;;;97.82;;
71502;SDS011;59322;51.382;7.372;2023-08-30T07:22:43;100.25;;;89.22;;
71502;SDS011;59322;51.382;7.372;2023-08-30T07:25:09;86.03;;;76.80;;
71502;SDS011;59322;51.382;7.372;2023-08-30T07:27:36;99.40;;;89.78;;
71502;SDS011;59322;51.382;7.372;2023-08-30T07:30:02;96.28;;;86.95;;
71502;SDS011;59322;51.382;7.372;2023-08-30T07:32:28;102.43;;;93.57;;
71502;SDS011;59322;51.382;7.372;2023-08-30T07:34:54;119.53;;;110.05;;
71502;SDS011;59322;51.382;7.372;2023-08-30T07:37:20;124.68;;;114.95;;
71502;SDS011;59322;51.382;7.372;2023-08-30T07:39:46;109.78;;;101.05;;
71502;SDS011;59322;51.382;7.372;2023-08-30T07:42:13;97.13;;;89.05;;
71502;SDS011;59322;51.382;7.372;2023-08-30T07:44:39;85.13;;;77.95;;
71502;SDS011;59322;51.382;7.372;2023-08-30T07:47:04;86.55;;;79.13;;
71502;SDS011;59322;51.382;7.372;2023-08-30T07:49:30;95.13;;;87.97;;
71502;SDS011;59322;51.382;7.372;2023-08-30T07:51:56;97.63;;;90.50;;
71502;SDS011;59322;51.382;7.372;2023-08-30T07:54:22;95.45;;;88.32;;
71502;SDS011;59322;51.382;7.372;2023-08-30T07:56:48;81.00;;;74.97;;
71502;SDS011;59322;51.382;7.372;2023-08-30T07:59:14;56.50;;;51.92;;
71502;SDS011;59322;51.382;7.372;2023-08-30T08:01:40;44.83;;;41.03;;
71502;SDS011;59322;51.382;7.372;2023-08-30T08:04:06;41.28;;;37.60;;
71502;SDS011;59322;51.382;7.372;2023-08-30T08:06:32;43.15;;;39.50;;
71502;SDS011;59322;51.382;7.372;2023-08-30T08:08:58;38.80;;;35.55;;
71502;SDS011;59322;51.382;7.372;2023-08-30T08:11:23;38.42;;;35.00;;
71502;SDS011;59322;51.382;7.372;2023-08-30T08:13:49;38.17;;;35.10;;
71502;SDS011;59322;51.382;7.372;2023-08-30T08:16:15;38.95;;;35.65;;
71502;SDS011;59322;51.382;7.372;2023-08-30T08:18:41;33.35;;;30.65;;
71502;SDS011;59322;51.382;7.372;2023-08-30T08:21:07;31.10;;;28.77;;
71502;SDS011;59322;51.382;7.372;2023-08-30T08:23:33;38.95;;;36.13;;
71502;SDS011;59322;51.382;7.372;2023-08-30T08:25:59;38.70;;;36.10;;
71502;SDS011;59322;51.382;7.372;2023-08-30T08:28:25;51.15;;;47.75;;
71502;SDS011;59322;51.382;7.372;2023-08-30T08:30:51;31.48;;;29.27;;
71502;SDS011;59322;51.382;7.372;2023-08-30T08:33:17;30.00;;;27.70;;
71502;SDS011;59322;51.382;7.372;2023-08-30T08:35:43;28.13;;;26.02;;
71502;SDS011;59322;51.382;7.372;2023-08-30T08:38:10;30.95;;;28.38;;
71502;SDS011;59322;51.382;7.372;2023-08-30T08:40:39;28.38;;;26.17;;
71502;SDS011;59322;51.382;7.372;2023-08-30T08:43:05;28.08;;;25.92;;
71502;SDS011;59322;51.382;7.372;2023-08-30T08:45:34;27.23;;;25.15;;
71502;SDS011;59322;51.382;7.372;2023-08-30T08:48:02;27.48;;;25.58;;
71502;SDS011;59322;51.382;7.372;2023-08-30T08:50:29;26.75;;;24.75;;
71502;SDS011;59322;51.382;7.372;2023-08-30T08:52:58;32.05;;;29.75;;
71502;SDS011;59322;51.382;7.372;2023-08-30T08:55:25;27.63;;;25.58;;
71502;SDS011;59322;51.382;7.372;2023-08-30T08:57:52;27.48;;;25.65;;
71502;SDS011;59322;51.382;7.372;2023-08-30T09:00:18;33.25;;;30.90;;
71502;SDS011;59322;51.382;7.372;2023-08-30T09:02:44;34.10;;;31.65;;
71502;SDS011;59322;51.382;7.372;2023-08-30T09:05:11;29.08;;;27.08;;
71502;SDS011;59322;51.382;7.372;2023-08-30T09:07:37;40.15;;;37.45;;
71502;SDS011;59322;51.382;7.372;2023-08-30T09:10:03;34.10;;;31.90;;
71502;SDS011;59322;51.382;7.372;2023-08-30T09:12:32;36.92;;;34.30;;
71502;SDS011;59322;51.382;7.372;2023-08-30T09:14:58;36.00;;;33.53;;
71502;SDS011;59322;51.382;7.372;2023-08-30T09:17:34;36.47;;;34.13;;
71502;SDS011;59322;51.382;7.372;2023-08-30T09:20:07;37.42;;;35.03;;
71502;SDS011;59322;51.382;7.372;2023-08-30T09:22:37;34.88;;;32.58;;
71502;SDS011;59322;51.382;7.372;2023-08-30T09:25:03;34.83;;;32.50;;
71502;SDS011;59322;51.382;7.372;2023-08-30T09:27:32;39.05;;;36.38;;
71502;SDS011;59322;51.382;7.372;2023-08-30T09:29:58;35.42;;;33.00;;
71502;SDS011;59322;51.382;7.372;2023-08-30T09:32:24;37.10;;;34.63;;
71502;SDS011;59322;51.382;7.372;2023-08-30T09:34:50;35.00;;;32.80;;
71502;SDS011;59322;51.382;7.372;2023-08-30T09:37:22;34.90;;;32.75;;
71502;SDS011;59322;51.382;7.372;2023-08-30T09:39:51;29.73;;;27.83;;
71502;SDS011;59322;51.382;7.372;2023-08-30T09:42:17;35.67;;;33.40;;
71502;SDS011;59322;51.382;7.372;2023-08-30T09:44:43;30.30;;;28.30;;
71502;SDS011;59322;51.382;7.372;2023-08-30T09:47:09;30.45;;;28.33;;
71502;SDS011;59322;51.382;7.372;2023-08-30T09:49:45;31.45;;;29.25;;
71502;SDS011;59322;51.382;7.372;2023-08-30T09:52:12;36.15;;;33.75;;
71502;SDS011;59322;51.382;7.372;2023-08-30T09:54:39;32.78;;;30.40;;
71502;SDS011;59322;51.382;7.372;2023-08-30T09:57:07;36.92;;;34.53;;
71502;SDS011;59322;51.382;7.372;2023-08-30T09:59:33;38.88;;;36.33;;
71502;SDS011;59322;51.382;7.372;2023-08-30T10:01:59;37.78;;;35.38;;
71502;SDS011;59322;51.382;7.372;2023-08-30T10:04:25;31.33;;;29.23;;
71502;SDS011;59322;51.382;7.372;2023-08-30T10:06:52;35.75;;;33.38;;
71502;SDS011;59322;51.382;7.372;2023-08-30T10:09:18;33.35;;;31.15;;
71502;SDS011;59322;51.382;7.372;2023-08-30T10:11:45;30.65;;;28.55;;
71502;SDS011;59322;51.382;7.372;2023-08-30T10:14:11;36.67;;;34.17;;
71502;SDS011;59322;51.382;7.372;2023-08-30T10:16:40;37.58;;;34.92;;
71502;SDS011;59322;51.382;7.372;2023-08-30T10:19:09;36.05;;;33.45;;
71502;SDS011;59322;51.382;7.372;2023-08-30T10:21:35;28.05;;;26.10;;
71502;SDS011;59322;51.382;7.372;2023-08-30T10:24:01;34.67;;;32.17;;
71502;SDS011;59322;51.382;7.372;2023-08-30T10:26:28;29.15;;;26.95;;
71502;SDS011;59322;51.382;7.372;2023-08-30T10:28:55;31.35;;;28.88;;
71502;SDS011;59322;51.382;7.372;2023-08-30T10:31:20;35.58;;;32.97;;
71502;SDS011;59322;51.382;7.372;2023-08-30T10:33:48;33.97;;;31.58;;
71502;SDS011;59322;51.382;7.372;2023-08-30T10:36:19;36.20;;;33.90;;
71502;SDS011;59322;51.382;7.372;2023-08-30T10:38:48;34.13;;;31.83;;
71502;SDS011;59322;51.382;7.372;2023-08-30T10:41:19;35.63;;;33.20;;
71502;SDS011;59322;51.382;7.372;2023-08-30T10:43:48;53.67;;;50.25;;
71502;SDS011;59322;51.382;7.372;2023-08-30T10:46:14;36.28;;;34.05;;
71502;SDS011;59322;51.382;7.372;2023-08-30T10:48:40;39.13;;;36.20;;
71502;SDS011;59322;51.382;7.372;2023-08-30T10:51:18;36.42;;;33.72;;
71502;SDS011;59322;51.382;7.372;2023-08-30T10:53:55;41.97;;;38.90;;
71502;SDS011;59322;51.382;7.372;2023-08-30T10:56:26;42.35;;;39.65;;
71502;SDS011;59322;51.382;7.372;2023-08-30T10:58:52;49.40;;;46.20;;
71502;SDS011;59322;51.382;7.372;2023-08-30T11:01:18;43.80;;;40.90;;
71502;SDS011;59322;51.382;7.372;2023-08-30T11:03:44;26.52;;;24.52;;
71502;SDS011;59322;51.382;7.372;2023-08-30T11:06:13;25.20;;;23.10;;
71502;SDS011;59322;51.382;7.372;2023-08-30T11:08:39;24.98;;;23.20;;
71502;SDS011;59322;51.382;7.372;2023-08-30T11:11:07;30.55;;;28.35;;
71502;SDS011;59322;51.382;7.372;2023-08-30T11:13:33;30.13;;;27.75;;
71502;SDS011;59322;51.382;7.372;2023-08-30T11:15:59;33.80;;;31.45;;
71502;SDS011;59322;51.382;7.372;2023-08-30T11:18:25;37.05;;;34.38;;
71502;SDS011;59322;51.382;7.372;2023-08-30T11:20:58;33.22;;;31.02;;
71502;SDS011;59322;51.382;7.372;2023-08-30T11:23:25;32.10;;;30.00;;
71502;SDS011;59322;51.382;7.372;2023-08-30T11:25:51;36.25;;;33.83;;
71502;SDS011;59322;51.382;7.372;2023-08-30T11:28:23;35.38;;;32.95;;
71502;SDS011;59322;51.382;7.372;2023-08-30T11:30:52;34.47;;;32.08;;
71502;SDS011;59322;51.382;7.372;2023-08-30T11:33:18;35.17;;;32.58;;
71502;SDS011;59322;51.382;7.372;2023-08-30T11:35:44;35.33;;;32.83;;
71502;SDS011;59322;51.382;7.372;2023-08-30T11:38:10;32.42;;;30.15;;
71502;SDS011;59322;51.382;7.372;2023-08-30T11:40:36;29.92;;;27.83;;
71502;SDS011;59322;51.382;7.372;2023-08-30T11:43:02;30.05;;;27.90;;
71502;SDS011;59322;51.382;7.372;2023-08-30T11:45:31;31.42;;;29.15;;
71502;SDS011;59322;51.382;7.372;2023-08-30T11:47:58;37.05;;;34.53;;
71502;SDS011;59322;51.382;7.372;2023-08-30T11:50:24;46.63;;;43.55;;
71502;SDS011;59322;51.382;7.372;2023-08-30T11:52:50;65.50;;;61.47;;
71502;SDS011;59322;51.382;7.372;2023-08-30T11:55:16;86.03;;;80.80;;
71502;SDS011;59322;51.382;7.372;2023-08-30T11:57:47;88.55;;;83.20;;
71502;SDS011;59322;51.382;7.372;2023-08-30T12:00:14;84.70;;;79.40;;
71502;SDS011;59322;51.382;7.372;2023-08-30T12:02:40;78.32;;;73.32;;
71502;SDS011;59322;51.382;7.372;2023-08-30T12:05:10;73.35;;;68.53;;
71502;SDS011;59322;51.382;7.372;2023-08-30T12:07:36;67.32;;;62.85;;
71502;SDS011;59322;51.382;7.372;2023-08-30T12:10:06;66.43;;;62.25;;
71502;SDS011;59322;51.382;7.372;2023-08-30T12:12:32;61.83;;;57.70;;
71502;SDS011;59322;51.382;7.372;2023-08-30T12:14:58;56.42;;;52.60;;
71502;SDS011;59322;51.382;7.372;2023-08-30T12:17:23;60.13;;;56.22;;
71502;SDS011;59322;51.382;7.372;2023-08-30T12:19:56;57.30;;;53.03;;
71502;SDS011;59322;51.382;7.372;2023-08-30T12:22:22;60.37;;;56.67;;
71502;SDS011;59322;51.382;7.372;2023-08-30T12:24:48;56.20;;;52.60;;
71502;SDS011;59322;51.382;7.372;2023-08-30T12:27:14;65.90;;;61.83;;
71502;SDS011;59322;51.382;7.372;2023-08-30T12:29:40;68.68;;;64.60;;
71502;SDS011;59322;51.382;7.372;2023-08-30T12:32:06;73.28;;;68.90;;
71502;SDS011;59322;51.382;7.372;2023-08-30T12:34:32;79.25;;;74.78;;
71502;SDS011;59322;51.382;7.372;2023-08-30T12:36:58;70.93;;;66.78;;
71502;SDS011;59322;51.382;7.372;2023-08-30T12:39:24;63.25;;;59.55;;
71502;SDS011;59322;51.382;7.372;2023-08-30T12:41:49;59.47;;;55.97;;
71502;SDS011;59322;51.382;7.372;2023-08-30T12:44:15;60.38;;;56.92;;
71502;SDS011;59322;51.382;7.372;2023-08-30T12:46:41;69.00;;;65.03;;
71502;SDS011;59322;51.382;7.372;2023-08-30T12:49:07;66.45;;;62.65;;
71502;SDS011;59322;51.382;7.372;2023-08-30T12:51:33;57.97;;;54.70;;
71502;SDS011;59322;51.382;7.372;2023-08-30T12:53:59;52.60;;;49.63;;
71502;SDS011;59322;51.382;7.372;2023-08-30T12:56:25;52.72;;;49.78;;
71502;SDS011;59322;51.382;7.372;2023-08-30T12:58:51;50.72;;;47.85;;
71502;SDS011;59322;51.382;7.372;2023-08-30T13:01:17;71.70;;;67.70;;
71502;SDS011;59322;51.382;7.372;2023-08-30T13:03:42;73.35;;;69.25;;
71502;SDS011;59322;51.382;7.372;2023-08-30T13:06:08;66.68;;;62.80;;
71502;SDS011;59322;51.382;7.372;2023-08-30T13:08:34;68.15;;;64.45;;
71502;SDS011;59322;51.382;7.372;2023-08-30T13:11:00;67.28;;;63.58;;
71502;SDS011;59322;51.382;7.372;2023-08-30T13:13:26;71.53;;;67.63;;
71502;SDS011;59322;51.382;7.372;2023-08-30T13:15:52;60.60;;;57.17;;
71502;SDS011;59322;51.382;7.372;2023-08-30T13:18:18;65.50;;;61.85;;
71502;SDS011;59322;51.382;7.372;2023-08-30T13:20:44;57.65;;;54.47;;
71502;SDS011;59322;51.382;7.372;2023-08-30T13:23:10;58.15;;;54.85;;
71502;SDS011;59322;51.382;7.372;2023-08-30T13:25:39;56.03;;;52.92;;
71502;SDS011;59322;51.382;7.372;2023-08-30T13:28:05;62.30;;;58.80;;
71502;SDS011;59322;51.382;7.372;2023-08-30T13:30:31;61.22;;;57.72;;
71502;SDS011;59322;51.382;7.372;2023-08-30T13:32:57;60.35;;;56.95;;
71502;SDS011;59322;51.382;7.372;2023-08-30T13:35:23;58.72;;;55.25;;
71502;SDS011;59322;51.382;7.372;2023-08-30T13:37:49;61.65;;;58.10;;
71502;SDS011;59322;51.382;7.372;2023-08-30T13:40:15;59.28;;;55.97;;
71502;SDS011;59322;51.382;7.372;2023-08-30T13:42:41;59.50;;;56.20;;
71502;SDS011;59322;51.382;7.372;2023-08-30T13:45:07;55.75;;;52.65;;
71502;SDS011;59322;51.382;7.372;2023-08-30T13:47:33;59.90;;;56.55;;
71502;SDS011;59322;51.382;7.372;2023-08-30T13:49:58;70.25;;;66.28;;
71502;SDS011;59322;51.382;7.372;2023-08-30T13:52:25;68.90;;;65.10;;
71502;SDS011;59322;51.382;7.372;2023-08-30T13:54:51;80.03;;;75.68;;
71502;SDS011;59322;51.382;7.372;2023-08-30T13:57:17;79.70;;;75.30;;
71502;SDS011;59322;51.382;7.372;2023-08-30T13:59:43;66.78;;;63.05;;
71502;SDS011;59322;51.382;7.372;2023-08-30T14:02:09;65.13;;;61.33;;
71502;SDS011;59322;51.382;7.372;2023-08-30T14:04:35;71.40;;;67.22;;
71502;SDS011;59322;51.382;7.372;2023-08-30T14:07:01;68.05;;;64.15;;
71502;SDS011;59322;51.382;7.372;2023-08-30T14:09:27;69.45;;;65.50;;
71502;SDS011;59322;51.382;7.372;2023-08-30T14:11:52;69.05;;;65.10;;
71502;SDS011;59322;51.382;7.372;2023-08-30T14:14:18;70.57;;;66.57;;
71502;SDS011;59322;51.382;7.372;2023-08-30T14:16:44;68.93;;;64.95;;
71502;SDS011;59322;51.382;7.372;2023-08-30T14:19:10;67.53;;;63.63;;
71502;SDS011;59322;51.382;7.372;2023-08-30T14:21:36;66.07;;;62.22;;